• Join FlightAware (Why Join?)
  • Login
  • US Flag 
09:24AM EST


 

Airport Tracker/Info


-or-


 

Live Flight TrackerFlight Track Log ✈ N7586Z ✈ 18-Jun-2013 ✈ KRAP - KABR

Flight Track Log - Related Links

Times and Time Zones

All times are in EDT time to prevent confusion due to time zone crossing. See the N7586Z flight status page for this flight to view local times or setup timezone preferences in your user account.

Time Position Orientation Groundspeed Altitude Reporting Facility
EDT Latitude Longitude Course Direction KTS MPH feet Rate Location/Type
07:01PM 44.0292 -103.0464 78° East 153 176 3,600  Level Denver Center
07:02PM 44.0400 -102.9753 78° East 186 214 6,100 2,280 Climbing Denver Center
07:03PM 44.0625 -102.9086 65° Northeast 197 227 8,500 2,400 Climbing Denver Center
07:04PM 44.0861 -102.8411 64° Northeast 203 234 11,000 2,400 Climbing Denver Center
07:05PM 44.1106 -102.7694 65° Northeast 203 234 13,500 2,580 Climbing Denver Center
07:06PM 44.1386 -102.6844 65° Northeast 203 234 16,400 2,220 Climbing Denver Center
07:07PM 44.1625 -102.6125 65° Northeast 202 232 18,200 1,680 Climbing Denver Center
07:08PM 44.1906 -102.5364 63° Northeast 216 249 19,900 1,620 Climbing Denver Center
07:09PM 44.2158 -102.4564 66° East 223 257 21,600 1,500 Climbing Denver Center
07:10PM 44.2408 -102.3764 66° East 225 259 23,000 660 Climbing Denver Center
07:11PM 44.2733 -102.2833 64° Northeast 260 299 23,000  Level Denver Center
07:12PM 44.3072 -102.1764 66° East 295 339 23,000  Level Denver Center
07:13PM 44.3503 -102.0500 64° Northeast 300 345 23,000  Level Denver Center
07:14PM 44.3831 -101.9397 67° East 305 351 23,000  Level Denver Center
07:15PM 44.4186 -101.8311 65° Northeast 307 353 23,000  Level Denver Center
07:17PM 44.4542 -101.7233 65° Northeast 306 352 23,000  Level Denver Center
07:18PM 44.4947 -101.5922 67° East 306 352 23,000  Level Denver Center
07:19PM 44.5361 -101.4611 66° East 307 353 23,000  Level Denver Center
07:20PM 44.5708 -101.3525 66° East 307 353 23,000  Level Minneapolis Center
07:21PM 44.6053 -101.2436 66° East 307 353 23,000  Level Minneapolis Center
07:22PM 44.6394 -101.1336 66° East 307 353 23,000  Level Minneapolis Center
07:23PM 44.6739 -101.0247 66° East 307 353 23,000  Level Minneapolis Center
07:24PM 44.7078 -100.9144 67° East 307 353 23,000  Level Minneapolis Center
07:25PM 44.7428 -100.8036 66° East 308 354 23,000  Level Minneapolis Center
07:26PM 44.7833 -100.6700 67° East 310 357 23,000  Level Minneapolis Center
07:27PM 44.8183 -100.5600 66° East 310 357 23,000  Level Minneapolis Center
07:28PM 44.8519 -100.4492 67° East 308 354 23,000  Level Minneapolis Center
07:29PM 44.8861 -100.3381 67° East 309 356 23,000  Level Minneapolis Center
07:30PM 44.9206 -100.2272 66° East 309 356 23,000  Level Minneapolis Center
07:31PM 44.9597 -100.0942 67° East 309 356 23,000  Level Minneapolis Center
07:32PM 44.9914 -99.9836 68° East 308 354 23,000  Level Minneapolis Center
07:33PM 45.0250 -99.8733 67° East 316 364 23,000 -780 Level Minneapolis Center
07:34PM 45.0592 -99.7636 66° East 312 359 21,500 -1,740 Descending Minneapolis Center
07:35PM 45.1008 -99.6244 67° East 319 367 19,500 -1,740 Descending Minneapolis Center
07:36PM 45.1428 -99.4831 67° East 324 373 17,600 -1,620 Descending Minneapolis Center
07:37PM 45.1781 -99.3647 67° East 326 375 15,900 -1,620 Descending Minneapolis Center
07:38PM 45.2117 -99.2500 67° East 320 368 14,300 -1,560 Descending Minneapolis Center
07:40PM 45.2444 -99.1372 68° East 314 361 12,700 -1,560 Descending Minneapolis Center
07:41PM 45.2764 -99.0244 68° East 311 358 11,100 -1,740 Descending Minneapolis Center
07:42PM 45.3156 -98.8917 67° East 308 354 9,200 -1,860 Descending Minneapolis Center
07:44PM 45.3599 -98.7112 71° East  Level FlightAware Approximate
07:51PM 45.4333 -98.4167 90° East  Level FlightAware Approximate
07:52PM 45.4491 -98.4218 90° East  Level Estimated
07:53PM 45.4491 -98.4218 90° East  Level Estimated